createdAt,value
2019-05-30T00:00:26.471Z,96607.56
2019-05-30T00:01:02.089Z,96608.36
2019-05-30T00:01:38.159Z,96610.14
2019-05-30T00:02:13.682Z,96603.95
2019-05-30T00:02:48.816Z,96612.86
2019-05-30T00:03:25.094Z,96613.78
2019-05-30T00:04:03.059Z,96608.70
2019-05-30T00:04:38.022Z,96608.97
2019-05-30T00:05:14.034Z,96616.12
2019-05-30T00:05:50.776Z,96612.92
2019-05-30T00:06:25.932Z,96612.36
2019-05-30T00:07:02.512Z,96612.36
2019-05-30T00:07:38.589Z,96612.70
2019-05-30T00:08:13.909Z,96610.81
2019-05-30T00:08:50.228Z,96610.48
2019-05-30T00:09:26.355Z,96612.77
2019-05-30T00:10:02.822Z,96613.14
2019-05-30T00:10:38.888Z,96609.13
2019-05-30T00:11:14.993Z,96615.13
2019-05-30T00:11:50.313Z,96615.48
2019-05-30T00:12:26.531Z,96615.69
2019-05-30T00:13:02.929Z,96619.67
2019-05-30T00:13:38.301Z,96616.14
2019-05-30T00:14:14.519Z,96610.56
2019-05-30T00:14:50.622Z,96617.09
2019-05-30T00:15:26.468Z,96614.27
2019-05-30T00:16:03.151Z,96611.00
2019-05-30T00:16:39.042Z,96617.34
2019-05-30T00:17:15.451Z,96616.13
2019-05-30T00:17:51.531Z,96616.69
2019-05-30T00:18:27.685Z,96615.25
2019-05-30T00:19:02.978Z,96614.36
2019-05-30T00:19:38.833Z,96614.22
2019-05-30T00:20:15.103Z,96608.23
2019-05-30T00:20:50.586Z,96615.59
2019-05-30T00:21:26.599Z,96615.59
2019-05-30T00:22:03.867Z,96618.24
2019-05-30T00:22:39.871Z,96615.32
2019-05-30T00:23:16.250Z,96617.73
2019-05-30T00:23:52.861Z,96619.28
2019-05-30T00:24:28.149Z,96615.65
2019-05-30T00:25:04.329Z,96614.86
2019-05-30T00:25:40.726Z,96621.39
2019-05-30T00:26:16.112Z,96625.73
2019-05-30T00:26:52.324Z,96621.32
2019-05-30T00:27:29.206Z,96621.70
2019-05-30T00:28:05.130Z,96621.65
2019-05-30T00:28:41.083Z,96622.15
2019-05-30T00:29:16.742Z,96621.87
2019-05-30T00:29:51.578Z,96626.02
2019-05-30T00:30:27.148Z,96624.92
2019-05-30T00:31:02.745Z,96629.44
2019-05-30T00:31:37.439Z,96618.66
2019-05-30T00:32:13.163Z,96624.86
2019-05-30T00:32:48.596Z,96623.69
2019-05-30T00:33:23.296Z,96624.80
2019-05-30T00:33:59.555Z,96634.13
2019-05-30T00:34:34.993Z,96624.86
2019-05-30T00:35:10.116Z,96624.14
2019-05-30T00:35:45.662Z,96622.96
2019-05-30T00:36:24.261Z,96627.66
2019-05-30T00:36:59.861Z,96624.74
2019-05-30T00:37:35.070Z,96629.09
2019-05-30T00:38:10.972Z,96623.67
2019-05-30T00:38:45.668Z,96632.17
2019-05-30T00:39:21.292Z,96622.50
2019-05-30T00:39:57.825Z,96628.69
2019-05-30T00:40:32.638Z,96624.27
2019-05-30T00:41:07.857Z,96627.95
2019-05-30T00:41:43.355Z,96626.63
2019-05-30T00:42:18.113Z,96627.58
2019-05-30T00:42:53.624Z,96629.60
2019-05-30T00:43:29.278Z,96627.00
2019-05-30T00:44:04.395Z,96629.55
2019-05-30T00:44:40.206Z,96621.77
2019-05-30T00:45:20.759Z,96625.67
2019-05-30T00:45:52.565Z,96627.00
2019-05-30T00:46:28.088Z,96624.30
2019-05-30T00:47:04.467Z,96624.15
2019-05-30T00:47:39.294Z,96630.43
2019-05-30T00:48:14.839Z,96624.15
2019-05-30T00:48:50.297Z,96626.84
2019-05-30T00:49:25.392Z,96628.72
2019-05-30T00:50:00.542Z,96622.84
2019-05-30T00:50:36.310Z,96628.49
2019-05-30T00:51:11.243Z,96625.58
2019-05-30T00:51:46.733Z,96628.27
2019-05-30T00:52:21.856Z,96622.34
2019-05-30T00:52:56.570Z,96622.75
2019-05-30T00:53:32.101Z,96626.15
2019-05-30T00:54:07.945Z,96624.87
2019-05-30T00:54:42.930Z,96620.88
2019-05-30T00:55:18.442Z,96620.27
2019-05-30T00:55:53.537Z,96622.81
2019-05-30T00:56:28.293Z,96616.91
2019-05-30T00:57:04.913Z,96621.29
2019-05-30T00:57:40.631Z,96620.56
2019-05-30T00:58:15.406Z,96622.94
2019-05-30T00:58:50.934Z,96622.50
2019-05-30T00:59:26.741Z,96621.95
2019-05-30T01:00:02.706Z,96622.63
2019-05-30T01:00:43.385Z,96622.23
2019-05-30T01:01:15.254Z,96621.70
2019-05-30T01:01:49.848Z,96623.25
2019-05-30T01:02:25.309Z,96620.11
2019-05-30T01:03:02.827Z,96625.73
2019-05-30T01:03:37.353Z,96625.89
2019-05-30T01:04:12.717Z,96623.73
2019-05-30T01:04:48.604Z,96625.89
2019-05-30T01:05:27.018Z,96620.11
2019-05-30T01:06:00.880Z,96616.43
2019-05-30T01:06:36.373Z,96616.21
2019-05-30T01:07:11.128Z,96620.24
2019-05-30T01:07:46.577Z,96619.86
2019-05-30T01:08:22.229Z,96613.77
2019-05-30T01:08:57.015Z,96616.98
2019-05-30T01:09:33.057Z,96618.94
2019-05-30T01:10:10.600Z,96617.01
2019-05-30T01:10:45.453Z,96616.41
2019-05-30T01:11:20.966Z,96615.01
2019-05-30T01:11:57.072Z,96620.53
2019-05-30T01:12:32.000Z,96620.66
2019-05-30T01:13:08.193Z,96619.95
2019-05-30T01:13:43.792Z,96620.12
2019-05-30T01:14:18.525Z,96621.45
2019-05-30T01:14:53.710Z,96622.02
2019-05-30T01:15:29.422Z,96619.92
2019-05-30T01:16:05.481Z,96622.14
2019-05-30T01:16:42.713Z,96619.88
2019-05-30T01:17:17.942Z,96625.24
2019-05-30T01:17:52.730Z,96623.37
2019-05-30T01:18:28.327Z,96629.02
2019-05-30T01:19:05.199Z,96625.24
2019-05-30T01:19:40.081Z,96620.11
2019-05-30T01:20:15.792Z,96617.78
2019-05-30T01:20:51.372Z,96622.38
2019-05-30T01:21:26.133Z,96618.56
2019-05-30T01:22:01.764Z,96618.56
2019-05-30T01:22:37.403Z,96617.24
2019-05-30T01:23:12.176Z,96613.98
2019-05-30T01:23:47.891Z,96624.02
2019-05-30T01:24:23.401Z,96618.06
2019-05-30T01:24:59.160Z,96619.11
2019-05-30T01:25:35.046Z,96620.76
2019-05-30T01:26:10.682Z,96615.30
2019-05-30T01:26:45.604Z,96617.67
2019-05-30T01:27:20.591Z,96614.31
2019-05-30T01:27:55.558Z,96616.63
2019-05-30T01:28:30.585Z,96620.70
2019-05-30T01:29:07.644Z,96617.37
2019-05-30T01:29:43.351Z,96615.41
2019-05-30T01:30:19.644Z,96620.98
2019-05-30T01:31:01.581Z,96619.11
2019-05-30T01:31:32.417Z,96616.73
2019-05-30T01:32:24.988Z,96614.14
2019-05-30T01:32:59.778Z,96615.25
2019-05-30T01:33:35.251Z,96614.67
2019-05-30T01:34:10.904Z,96616.13
2019-05-30T01:34:45.578Z,96609.76
2019-05-30T01:35:21.321Z,96615.61
2019-05-30T01:35:57.792Z,96616.05
2019-05-30T01:36:32.618Z,96618.97
2019-05-30T01:37:08.082Z,96618.27
2019-05-30T01:37:43.777Z,96612.81
2019-05-30T01:38:18.627Z,96618.59
2019-05-30T01:38:54.187Z,96620.08
2019-05-30T01:39:29.740Z,96620.91
2019-05-30T01:40:06.507Z,96612.72
2019-05-30T01:40:42.141Z,96615.64
2019-05-30T01:41:17.931Z,96615.42
2019-05-30T01:41:52.684Z,96616.84
2019-05-30T01:42:27.771Z,96614.69
2019-05-30T01:43:04.083Z,96612.66
2019-05-30T01:43:38.881Z,96610.15
2019-05-30T01:44:14.652Z,96609.11
2019-05-30T01:44:50.111Z,96615.52
2019-05-30T01:45:24.898Z,96614.25
2019-05-30T01:46:00.379Z,96615.73
2019-05-30T01:46:35.964Z,96616.84
2019-05-30T01:47:10.719Z,96615.20
2019-05-30T01:47:46.241Z,96614.25
2019-05-30T01:48:21.243Z,96616.27
2019-05-30T01:48:55.935Z,96620.75
2019-05-30T01:49:31.312Z,96614.41
2019-05-30T01:50:11.757Z,96608.66
2019-05-30T01:50:46.717Z,96615.20
2019-05-30T01:51:22.221Z,96614.38
2019-05-30T01:51:58.350Z,96615.01
2019-05-30T01:52:33.357Z,96614.25
2019-05-30T01:53:09.037Z,96610.69
2019-05-30T01:53:44.725Z,96613.54
2019-05-30T01:54:19.578Z,96617.09
2019-05-30T01:54:55.006Z,96615.38
2019-05-30T01:55:30.198Z,96613.16
2019-05-30T01:56:05.131Z,96618.36
2019-05-30T01:56:40.708Z,96618.52
2019-05-30T01:57:15.690Z,96616.08
2019-05-30T01:57:50.410Z,96614.05
2019-05-30T01:58:25.915Z,96620.91
2019-05-30T01:59:02.578Z,96620.84
2019-05-30T01:59:37.564Z,96620.17
2019-05-30T02:00:21.483Z,96620.17
2019-05-30T02:00:57.018Z,96622.02
2019-05-30T02:01:31.809Z,96616.71
2019-05-30T02:02:07.625Z,96622.27
2019-05-30T02:02:43.079Z,96620.77
2019-05-30T02:03:17.818Z,96622.71
2019-05-30T02:03:53.266Z,96625.16
2019-05-30T02:04:28.895Z,96618.02
2019-05-30T02:05:05.015Z,96623.73
2019-05-30T02:05:40.685Z,96622.55
2019-05-30T02:06:16.413Z,96620.55
2019-05-30T02:06:51.158Z,96628.33
2019-05-30T02:07:26.774Z,96624.87
2019-05-30T02:08:03.101Z,96623.69
2019-05-30T02:08:37.932Z,96622.87
2019-05-30T02:09:13.362Z,96622.11
2019-05-30T02:09:48.990Z,96624.03
2019-05-30T02:10:23.811Z,96620.03
2019-05-30T02:10:59.259Z,96620.23
2019-05-30T02:11:35.032Z,96626.57
2019-05-30T02:12:09.839Z,96620.98
2019-05-30T02:12:45.396Z,96627.92
2019-05-30T02:13:20.868Z,96626.30
2019-05-30T02:13:55.679Z,96626.05
2019-05-30T02:14:31.195Z,96622.12
2019-05-30T02:15:08.005Z,96625.61
2019-05-30T02:15:42.831Z,96628.30
2019-05-30T02:16:18.331Z,96633.97
2019-05-30T02:16:53.333Z,96629.15
2019-05-30T02:17:28.070Z,96629.66
2019-05-30T02:18:03.542Z,96635.48
2019-05-30T02:18:39.058Z,96623.31
2019-05-30T02:19:13.975Z,96627.19
2019-05-30T02:19:49.597Z,96633.61
2019-05-30T02:20:25.161Z,96627.19
2019-05-30T02:20:59.854Z,96630.30
2019-05-30T02:21:35.430Z,96633.91
2019-05-30T02:22:11.058Z,96638.68
2019-05-30T02:22:45.639Z,96632.34
2019-05-30T02:23:21.077Z,96631.23
2019-05-30T02:23:56.514Z,96635.70
2019-05-30T02:24:31.411Z,96629.59
2019-05-30T02:25:11.227Z,96637.64
2019-05-30T02:25:46.841Z,96645.02
2019-05-30T02:26:21.579Z,96633.12
2019-05-30T02:26:57.141Z,96645.17
2019-05-30T02:27:32.831Z,96645.41
2019-05-30T02:28:08.252Z,96633.97
2019-05-30T02:28:45.402Z,96638.91
2019-05-30T02:29:20.916Z,96633.45
2019-05-30T02:29:55.758Z,96631.44
2019-05-30T02:30:31.460Z,96640.99
2019-05-30T02:31:07.173Z,96638.55
2019-05-30T02:31:43.630Z,96636.95
2019-05-30T02:32:19.163Z,96640.45
2019-05-30T02:32:54.882Z,96641.60
2019-05-30T02:33:29.526Z,96641.44
2019-05-30T02:34:07.213Z,96644.12
2019-05-30T02:34:42.553Z,96635.62
2019-05-30T02:35:17.428Z,96639.87
2019-05-30T02:35:52.959Z,96643.68
2019-05-30T02:36:28.566Z,96646.75
2019-05-30T02:37:05.131Z,96637.48
2019-05-30T02:37:40.242Z,96645.48
2019-05-30T02:38:15.868Z,96644.37
2019-05-30T02:38:50.669Z,96647.73
2019-05-30T02:39:26.133Z,96643.75
2019-05-30T02:40:03.918Z,96643.25
2019-05-30T02:40:37.988Z,96645.41
2019-05-30T02:41:13.602Z,96642.05
2019-05-30T02:41:49.342Z,96638.02
2019-05-30T02:42:24.426Z,96642.44
2019-05-30T02:43:01.239Z,96646.38
2019-05-30T02:43:37.405Z,96643.98
2019-05-30T02:44:12.600Z,96641.92
2019-05-30T02:44:48.123Z,96642.71
2019-05-30T02:45:23.732Z,96641.23
2019-05-30T02:45:58.383Z,96641.77
2019-05-30T02:46:34.087Z,96642.89
2019-05-30T02:47:11.457Z,96647.14
2019-05-30T02:47:46.221Z,96648.26
2019-05-30T02:48:21.199Z,96640.56
2019-05-30T02:48:59.230Z,96638.31
2019-05-30T02:49:33.000Z,96643.19
2019-05-30T02:50:13.281Z,96644.95
2019-05-30T02:50:47.613Z,96641.68
2019-05-30T02:51:22.517Z,96639.67
2019-05-30T02:51:58.389Z,96642.22
2019-05-30T02:52:33.995Z,96640.27
2019-05-30T02:53:10.958Z,96642.13
2019-05-30T02:53:46.220Z,96639.59
2019-05-30T02:54:21.839Z,96644.57
2019-05-30T02:54:56.498Z,96638.91
2019-05-30T02:55:31.930Z,96640.27
2019-05-30T02:56:07.988Z,96638.14
2019-05-30T02:56:43.983Z,96640.17
2019-05-30T02:57:19.422Z,96639.41
2019-05-30T02:57:55.021Z,96638.08
2019-05-30T02:58:29.872Z,96638.81
2019-05-30T02:59:06.221Z,96636.52
2019-05-30T02:59:43.160Z,96642.38
2019-05-30T03:00:21.348Z,96638.08
2019-05-30T03:00:57.479Z,96635.30
2019-05-30T03:01:32.997Z,96637.45
2019-05-30T03:02:11.989Z,96638.58
2019-05-30T03:02:44.438Z,96641.88
2019-05-30T03:03:19.869Z,96635.06
2019-05-30T03:03:54.693Z,96635.06
2019-05-30T03:04:30.132Z,96637.45
2019-05-30T03:05:11.950Z,96639.11
2019-05-30T03:05:45.276Z,96633.64
2019-05-30T03:06:21.063Z,96636.03
2019-05-30T03:06:56.245Z,96636.86
2019-05-30T03:07:31.049Z,96635.06
2019-05-30T03:08:09.274Z,96629.41
2019-05-30T03:08:44.097Z,96634.56
2019-05-30T03:09:18.875Z,96636.12
2019-05-30T03:09:54.635Z,96632.19
2019-05-30T03:10:30.614Z,96632.86
2019-05-30T03:11:07.857Z,96639.55
2019-05-30T03:11:42.918Z,96639.55
2019-05-30T03:12:18.466Z,96631.50
2019-05-30T03:12:53.343Z,96642.32
2019-05-30T03:13:29.042Z,96643.69
2019-05-30T03:14:06.466Z,96632.48
2019-05-30T03:14:41.227Z,96644.56
2019-05-30T03:15:16.818Z,96638.08
2019-05-30T03:15:52.595Z,96638.08
2019-05-30T03:16:27.245Z,96636.12
2019-05-30T03:17:05.348Z,96640.37
2019-05-30T03:17:39.989Z,96641.64
2019-05-30T03:18:15.289Z,96639.55
2019-05-30T03:18:51.220Z,96636.57
2019-05-30T03:19:26.937Z,96641.50
2019-05-30T03:20:03.755Z,96635.73
2019-05-30T03:20:39.228Z,96641.78
2019-05-30T03:21:15.507Z,96638.37
2019-05-30T03:21:50.698Z,96640.56
2019-05-30T03:22:26.321Z,96644.22
2019-05-30T03:23:03.225Z,96641.97
2019-05-30T03:23:37.806Z,96646.59
2019-05-30T03:24:14.342Z,96645.59
2019-05-30T03:24:50.088Z,96648.57
2019-05-30T03:25:24.937Z,96644.23
2019-05-30T03:26:00.438Z,96647.86
2019-05-30T03:26:36.009Z,96647.17
2019-05-30T03:27:12.334Z,96650.83
2019-05-30T03:27:48.045Z,96647.17
2019-05-30T03:28:23.725Z,96651.36
2019-05-30T03:28:58.514Z,96651.27
2019-05-30T03:29:33.949Z,96648.69
2019-05-30T03:30:22.216Z,96647.45
2019-05-30T03:30:47.004Z,96649.59
2019-05-30T03:31:29.354Z,96648.44
2019-05-30T03:32:45.086Z,96655.55
2019-05-30T03:33:03.332Z,96649.98
2019-05-30T03:33:36.046Z,96652.66
2019-05-30T03:33:53.505Z,96655.84
2019-05-30T03:34:29.446Z,96658.59
2019-05-30T03:35:17.661Z,96652.12
2019-05-30T03:35:44.633Z,96651.32
2019-05-30T03:36:28.614Z,96656.83
2019-05-30T03:36:56.361Z,96657.73
2019-05-30T03:37:31.338Z,96659.00
2019-05-30T03:38:07.959Z,96655.73
2019-05-30T03:38:42.987Z,96658.00
2019-05-30T03:39:18.178Z,96658.00
2019-05-30T03:39:52.977Z,96657.95
2019-05-30T03:40:29.842Z,96652.64
2019-05-30T03:41:07.491Z,96659.91
2019-05-30T03:41:42.024Z,96657.52
2019-05-30T03:42:17.559Z,96655.86
2019-05-30T03:42:53.157Z,96657.65
2019-05-30T03:43:27.888Z,96658.53
2019-05-30T03:44:04.012Z,96658.88
2019-05-30T03:44:40.616Z,96662.33
2019-05-30T03:45:16.570Z,96666.87
2019-05-30T03:45:52.358Z,96659.83
2019-05-30T03:46:35.213Z,96661.06
2019-05-30T03:47:13.799Z,96663.99
2019-05-30T03:47:56.145Z,96660.37
2019-05-30T03:48:33.057Z,96660.81
2019-05-30T03:49:12.803Z,96667.95
2019-05-30T03:49:51.612Z,96668.88
2019-05-30T03:50:30.131Z,96666.91
2019-05-30T03:51:09.404Z,96663.34
2019-05-30T03:51:45.873Z,96668.27
2019-05-30T03:52:21.732Z,96665.52
2019-05-30T03:52:56.965Z,96662.08
2019-05-30T03:53:32.850Z,96670.58
2019-05-30T03:54:09.873Z,96664.47
2019-05-30T03:54:45.359Z,96671.93
2019-05-30T03:55:22.394Z,96665.86
2019-05-30T03:56:06.542Z,96662.94
2019-05-30T03:56:48.740Z,96660.66
2019-05-30T03:57:28.835Z,96660.60
2019-05-30T03:58:29.313Z,96663.44
2019-05-30T03:59:18.433Z,96662.39
2019-05-30T04:00:14.504Z,96671.78
2019-05-30T04:00:56.905Z,96665.01
2019-05-30T04:01:41.990Z,96665.97
2019-05-30T04:02:55.401Z,96664.56
2019-05-30T04:03:41.918Z,96662.64
2019-05-30T04:04:27.110Z,96657.52
2019-05-30T04:05:22.311Z,96668.13
2019-05-30T04:06:02.496Z,96665.53
2019-05-30T04:06:44.375Z,96668.70
2019-05-30T04:07:24.324Z,96669.08
2019-05-30T04:08:00.777Z,96673.19
2019-05-30T04:08:37.284Z,96671.26
2019-05-30T04:09:21.932Z,96671.17
2019-05-30T04:09:57.439Z,96670.81
2019-05-30T04:10:36.339Z,96667.93
2019-05-30T04:11:16.588Z,96668.81
2019-05-30T04:12:12.728Z,96673.13
2019-05-30T04:13:12.131Z,96669.83
2019-05-30T04:13:55.041Z,96676.33
2019-05-30T04:14:35.140Z,96675.11
2019-05-30T04:15:32.281Z,96685.11
2019-05-30T04:16:08.661Z,96679.41
2019-05-30T04:16:43.720Z,96677.23
2019-05-30T04:17:19.938Z,96684.60
2019-05-30T04:17:55.150Z,96682.20
2019-05-30T04:18:30.593Z,96681.33
2019-05-30T04:19:05.326Z,96683.17
2019-05-30T04:19:40.902Z,96684.97
2019-05-30T04:20:20.572Z,96680.97
2019-05-30T04:20:53.069Z,96689.40
2019-05-30T04:21:28.701Z,96684.97
2019-05-30T04:22:04.150Z,96685.84
2019-05-30T04:22:38.943Z,96682.58
2019-05-30T04:23:14.997Z,96678.30
2019-05-30T04:23:51.621Z,96683.75
2019-05-30T04:24:26.368Z,96682.58
2019-05-30T04:25:01.825Z,96685.70
2019-05-30T04:25:37.572Z,96688.24
2019-05-30T04:26:13.640Z,96679.66
2019-05-30T04:26:48.806Z,96686.45
2019-05-30T04:27:24.320Z,96690.25
2019-05-30T04:27:59.232Z,96687.44
2019-05-30T04:28:34.902Z,96689.37
2019-05-30T04:29:12.031Z,96685.81
2019-05-30T04:29:47.043Z,96691.84
2019-05-30T04:30:22.104Z,96690.50
2019-05-30T04:30:57.127Z,96692.92
2019-05-30T04:31:31.876Z,96690.64
2019-05-30T04:32:08.478Z,96690.31
2019-05-30T04:32:43.900Z,96691.52
2019-05-30T04:33:31.695Z,96690.36
2019-05-30T04:33:55.891Z,96694.00
2019-05-30T04:34:31.301Z,96692.50
2019-05-30T04:35:06.361Z,96696.39
2019-05-30T04:35:41.763Z,96696.91
2019-05-30T04:36:18.954Z,96692.78
2019-05-30T04:36:53.958Z,96697.22
2019-05-30T04:37:29.606Z,96703.27
2019-05-30T04:38:04.653Z,96701.09
2019-05-30T04:38:39.230Z,96708.88
2019-05-30T04:39:15.137Z,96702.46
2019-05-30T04:39:50.807Z,96704.01
2019-05-30T04:40:25.477Z,96703.77
2019-05-30T04:41:01.091Z,96704.89
2019-05-30T04:41:36.529Z,96704.68
2019-05-30T04:42:11.440Z,96700.34
2019-05-30T04:42:47.560Z,96700.87
2019-05-30T04:43:22.984Z,96704.09
2019-05-30T04:43:57.893Z,96703.05
2019-05-30T04:44:32.846Z,96706.27
2019-05-30T04:45:11.777Z,96703.48
2019-05-30T04:45:46.836Z,96706.02
2019-05-30T04:46:22.305Z,96706.94
2019-05-30T04:46:57.807Z,96706.02
2019-05-30T04:47:32.530Z,96709.48
2019-05-30T04:48:09.704Z,96701.44
2019-05-30T04:48:45.312Z,96709.11
2019-05-30T04:49:21.617Z,96703.55
2019-05-30T04:49:57.191Z,96709.11
2019-05-30T04:50:32.848Z,96709.30
2019-05-30T04:51:07.611Z,96703.69
2019-05-30T04:51:43.145Z,96708.76
2019-05-30T04:52:23.994Z,96707.73
2019-05-30T04:52:55.375Z,96708.86
2019-05-30T04:53:30.386Z,96710.44
2019-05-30T04:54:12.178Z,96708.73
2019-05-30T04:54:46.800Z,96705.22
2019-05-30T04:55:23.147Z,96705.36
2019-05-30T04:55:58.804Z,96702.69
2019-05-30T04:56:33.536Z,96704.84
2019-05-30T04:57:10.698Z,96705.84
2019-05-30T04:57:46.520Z,96709.91
2019-05-30T04:58:24.172Z,96704.44
2019-05-30T04:58:58.651Z,96706.88
2019-05-30T04:59:34.171Z,96708.59
2019-05-30T05:00:10.922Z,96706.97
2019-05-30T05:00:46.346Z,96706.97
2019-05-30T05:01:22.215Z,96704.05
2019-05-30T05:01:57.272Z,96707.32
2019-05-30T05:02:32.830Z,96706.58
2019-05-30T05:03:07.968Z,96706.88
2019-05-30T05:03:46.240Z,96713.07
2019-05-30T05:04:19.552Z,96707.85
2019-05-30T05:04:55.240Z,96711.30
2019-05-30T05:05:30.001Z,96703.70
2019-05-30T05:06:05.500Z,96706.28
2019-05-30T05:06:41.039Z,96708.77
2019-05-30T05:07:15.759Z,96709.50
2019-05-30T05:07:51.496Z,96712.48
2019-05-30T05:08:26.929Z,96711.66
2019-05-30T05:09:01.870Z,96712.27
2019-05-30T05:09:37.316Z,96718.38
2019-05-30T05:10:13.954Z,96713.83
2019-05-30T05:10:48.689Z,96713.68
2019-05-30T05:11:25.436Z,96713.81
2019-05-30T05:12:00.686Z,96712.28
2019-05-30T05:12:35.556Z,96704.73
2019-05-30T05:13:12.253Z,96715.80
2019-05-30T05:13:47.481Z,96706.47
2019-05-30T05:14:22.769Z,96714.45
2019-05-30T05:14:58.590Z,96714.61
2019-05-30T05:15:34.104Z,96713.53
2019-05-30T05:16:24.155Z,96712.05
2019-05-30T05:16:46.109Z,96714.81
2019-05-30T05:17:21.195Z,96713.70
2019-05-30T05:17:55.940Z,96721.67
2019-05-30T05:18:31.533Z,96718.17
2019-05-30T05:19:07.117Z,96716.39
2019-05-30T05:19:41.840Z,96718.18
2019-05-30T05:20:19.228Z,96717.11
2019-05-30T05:20:54.817Z,96714.66
2019-05-30T05:21:29.749Z,96710.70
2019-05-30T05:22:04.796Z,96713.81
2019-05-30T05:22:39.936Z,96717.63
2019-05-30T05:23:15.048Z,96715.66
2019-05-30T05:23:50.581Z,96718.36
2019-05-30T05:24:26.312Z,96716.77
2019-05-30T05:25:01.099Z,96714.39
2019-05-30T05:25:36.630Z,96719.70
2019-05-30T05:26:13.429Z,96712.33
2019-05-30T05:26:48.469Z,96713.73
2019-05-30T05:27:24.171Z,96716.46
2019-05-30T05:27:59.878Z,96723.98
2019-05-30T05:28:34.714Z,96716.87
2019-05-30T05:29:10.333Z,96716.50
2019-05-30T05:29:45.790Z,96719.35
2019-05-30T05:30:20.736Z,96718.59
2019-05-30T05:30:56.089Z,96717.77
2019-05-30T05:31:31.621Z,96723.64
2019-05-30T05:32:06.374Z,96719.34
2019-05-30T05:32:41.880Z,96724.61
2019-05-30T05:33:18.597Z,96718.80
2019-05-30T05:33:56.653Z,96720.34
2019-05-30T05:34:30.772Z,96717.97
2019-05-30T05:35:08.823Z,96720.84
2019-05-30T05:35:43.632Z,96725.05
2019-05-30T05:36:18.951Z,96725.39
2019-05-30T05:36:53.937Z,96721.25
2019-05-30T05:37:28.600Z,96722.73
2019-05-30T05:38:04.283Z,96720.80
2019-05-30T05:38:39.283Z,96728.88
2019-05-30T05:39:14.004Z,96723.16
2019-05-30T05:39:49.066Z,96727.49
2019-05-30T05:40:24.958Z,96729.97
2019-05-30T05:40:59.577Z,96725.89
2019-05-30T05:41:35.148Z,96731.23
2019-05-30T05:42:11.035Z,96729.48
2019-05-30T05:42:45.705Z,96725.48
2019-05-30T05:43:22.401Z,96731.75
2019-05-30T05:43:58.008Z,96727.25
2019-05-30T05:44:32.931Z,96729.63
2019-05-30T05:45:09.752Z,96730.46
2019-05-30T05:45:45.213Z,96733.56
2019-05-30T05:46:20.357Z,96731.53
2019-05-30T05:46:56.139Z,96732.19
2019-05-30T05:47:31.670Z,96734.12
2019-05-30T05:48:06.487Z,96731.95
2019-05-30T05:48:41.584Z,96734.88
2019-05-30T05:49:18.407Z,96736.25
2019-05-30T05:49:53.335Z,96740.41
2019-05-30T05:50:28.861Z,96734.19
2019-05-30T05:51:04.648Z,96740.03
2019-05-30T05:51:39.323Z,96738.37
2019-05-30T05:52:14.322Z,96738.86
2019-05-30T05:52:49.847Z,96735.48
2019-05-30T05:53:25.086Z,96739.33
2019-05-30T05:54:00.701Z,96734.80
2019-05-30T05:54:36.300Z,96735.34
2019-05-30T05:55:11.692Z,96739.33
2019-05-30T05:55:47.303Z,96739.37
2019-05-30T05:56:22.981Z,96737.90
2019-05-30T05:56:57.911Z,96737.55
2019-05-30T05:57:33.103Z,96742.66
2019-05-30T05:58:08.525Z,96740.63
2019-05-30T05:58:43.415Z,96738.11
2019-05-30T05:59:19.072Z,96741.75
2019-05-30T05:59:54.529Z,96740.56
2019-05-30T06:00:29.682Z,96734.47
2019-05-30T06:01:05.774Z,96743.03
2019-05-30T06:01:41.385Z,96739.84
2019-05-30T06:02:17.566Z,96742.95
2019-05-30T06:02:53.428Z,96740.30
2019-05-30T06:03:28.937Z,96738.84
2019-05-30T06:04:12.593Z,96736.48
2019-05-30T06:04:40.985Z,96739.75
2019-05-30T06:05:16.579Z,96739.76
2019-05-30T06:05:53.393Z,96736.27
2019-05-30T06:06:31.301Z,96739.65
2019-05-30T06:07:05.506Z,96735.48
2019-05-30T06:07:41.202Z,96740.66
2019-05-30T06:08:17.373Z,96742.31
2019-05-30T06:08:53.063Z,96740.05
2019-05-30T06:09:28.792Z,96747.67
2019-05-30T06:10:06.046Z,96747.22
2019-05-30T06:10:41.583Z,96742.12
2019-05-30T06:11:16.652Z,96742.83
2019-05-30T06:11:52.244Z,96744.10
2019-05-30T06:12:27.964Z,96747.03
2019-05-30T06:13:02.647Z,96746.28
2019-05-30T06:13:38.315Z,96749.84
2019-05-30T06:14:13.810Z,96747.17
2019-05-30T06:14:48.659Z,96747.55
2019-05-30T06:15:25.000Z,96746.27
2019-05-30T06:16:00.195Z,96748.14
2019-05-30T06:16:35.103Z,96751.84
2019-05-30T06:17:10.643Z,96747.67
2019-05-30T06:17:46.219Z,96747.41
2019-05-30T06:18:22.172Z,96751.12
2019-05-30T06:18:57.725Z,96748.58
2019-05-30T06:19:45.960Z,96749.52
2019-05-30T06:20:10.542Z,96761.53
2019-05-30T06:20:51.942Z,96751.32
2019-05-30T06:21:27.557Z,96756.95
2019-05-30T06:22:02.607Z,96751.06
2019-05-30T06:22:38.044Z,96752.52
2019-05-30T06:23:13.623Z,96753.66
2019-05-30T06:23:48.285Z,96753.95
2019-05-30T06:24:23.827Z,96754.09
2019-05-30T06:24:59.428Z,96754.27
2019-05-30T06:25:34.112Z,96750.23
2019-05-30T06:26:09.652Z,96754.95
2019-05-30T06:26:45.120Z,96755.15
2019-05-30T06:27:20.136Z,96754.05
2019-05-30T06:27:55.837Z,96757.93
2019-05-30T06:28:31.428Z,96757.62
2019-05-30T06:29:06.135Z,96752.31
2019-05-30T06:29:41.703Z,96759.06
2019-05-30T06:30:18.232Z,96758.24
2019-05-30T06:30:53.110Z,96755.34
2019-05-30T06:31:28.753Z,96754.77
2019-05-30T06:32:04.462Z,96760.77
2019-05-30T06:32:39.294Z,96758.80
2019-05-30T06:33:14.948Z,96755.84
2019-05-30T06:33:50.045Z,96759.95
2019-05-30T06:34:32.326Z,96760.91
2019-05-30T06:35:02.066Z,96761.37
2019-05-30T06:35:37.505Z,96753.05
2019-05-30T06:36:12.173Z,96757.25
2019-05-30T06:36:47.647Z,96756.47
2019-05-30T06:37:23.213Z,96756.27
2019-05-30T06:37:57.897Z,96760.88
2019-05-30T06:38:33.678Z,96763.52
2019-05-30T06:39:10.570Z,96766.70
2019-05-30T06:39:45.329Z,96763.52
2019-05-30T06:40:21.366Z,96763.69
2019-05-30T06:40:57.021Z,96762.36
2019-05-30T06:41:31.842Z,96762.36
2019-05-30T06:42:07.420Z,96757.17
2019-05-30T06:42:43.088Z,96760.25
2019-05-30T06:43:17.701Z,96760.72
2019-05-30T06:43:53.492Z,96763.02
2019-05-30T06:44:28.608Z,96760.71
2019-05-30T06:45:03.682Z,96764.97
2019-05-30T06:45:38.747Z,96759.84
2019-05-30T06:46:14.200Z,96762.11
2019-05-30T06:46:49.043Z,96759.07
2019-05-30T06:47:24.663Z,96757.25
2019-05-30T06:48:00.107Z,96763.72
2019-05-30T06:48:34.839Z,96757.98
2019-05-30T06:49:10.447Z,96764.34
2019-05-30T06:49:45.830Z,96762.50
2019-05-30T06:50:21.067Z,96761.58
2019-05-30T06:50:56.693Z,96760.30
2019-05-30T06:51:32.183Z,96765.45
2019-05-30T06:52:07.157Z,96763.88
2019-05-30T06:52:42.891Z,96759.26
2019-05-30T06:53:18.319Z,96763.05
2019-05-30T06:53:53.280Z,96766.83
2019-05-30T06:54:29.526Z,96759.91
2019-05-30T06:55:06.190Z,96765.02
2019-05-30T06:55:40.848Z,96768.14
2019-05-30T06:56:16.748Z,96763.52
2019-05-30T06:56:52.305Z,96763.76
2019-05-30T06:57:27.332Z,96767.75
2019-05-30T06:58:02.804Z,96764.67
2019-05-30T06:58:48.049Z,96768.05
2019-05-30T06:59:14.558Z,96769.87
2019-05-30T06:59:50.376Z,96766.28
2019-05-30T07:00:26.583Z,96763.41
2019-05-30T07:01:02.608Z,96765.63
2019-05-30T07:01:38.375Z,96763.55
2019-05-30T07:02:13.888Z,96767.39
2019-05-30T07:02:48.600Z,96759.64
2019-05-30T07:03:24.356Z,96758.05
2019-05-30T07:04:00.127Z,96765.16
2019-05-30T07:04:51.005Z,96767.49